EJU4PX ESSA-EDLP
Flight info
| Callsign | EJU4PX |
|---|---|
| Flight time | 1h 41m |
| Altitude | 38000 |
| Route | NOSLI N850 TONSA DCT NEFYN DCT ETPIG P605 EKRAL DCT SALLO M726 BKD P12 WRB WRB6H |
| Aircraft | A20N/M-SDE2E3FGHIRWXY/LB1 |
Departure
| Time | 2026-05-07 09:34 |
|---|---|
| Airport | Stockholm-Arlanda Airport (ESSA) |
Arrival
| Time | 2026-05-07 11:15 |
|---|---|
| Airport | Paderborn Lippstadt Airport (EDLP) |
| Time | Latitude | Longitude | Altitude | Speed | Heading |
|---|---|---|---|---|---|
| 2026-05-07 09:10 | 59.64466 | 17.92635 | 141 ft | 0 kts | 57° |
| 2026-05-07 09:21 | 59.64461 | 17.92620 | 141 ft | 4 kts | 55° |
| 2026-05-07 09:21 | 59.64445 | 17.92577 | 141 ft | 4 kts | 51° |
| 2026-05-07 09:21 | 59.64428 | 17.92536 | 141 ft | 4 kts | 46° |
| 2026-05-07 09:22 | 59.64408 | 17.92499 | 141 ft | 4 kts | 41° |
| 2026-05-07 09:22 | 59.64388 | 17.92465 | 141 ft | 4 kts | 38° |
| 2026-05-07 09:22 | 59.64367 | 17.92431 | 141 ft | 4 kts | 45° |
| 2026-05-07 09:22 | 59.64354 | 17.92397 | 141 ft | 4 kts | 50° |
| 2026-05-07 09:23 | 59.64335 | 17.92371 | 141 ft | 4 kts | 353° |
| 2026-05-07 09:23 | 59.64314 | 17.92393 | 141 ft | 4 kts | 306° |
| 2026-05-07 09:23 | 59.64308 | 17.92410 | 141 ft | 1 kts | 298° |
| 2026-05-07 09:26 | 59.64312 | 17.92398 | 141 ft | 5 kts | 298° |
| 2026-05-07 09:26 | 59.64354 | 17.92242 | 141 ft | 19 kts | 297° |
| 2026-05-07 09:27 | 59.64408 | 17.92040 | 141 ft | 14 kts | 298° |
| 2026-05-07 09:27 | 59.64486 | 17.91961 | 141 ft | 16 kts | 1° |
| 2026-05-07 09:27 | 59.64827 | 17.92086 | 141 ft | 27 kts | 11° |
| 2026-05-07 09:28 | 59.65003 | 17.92150 | 141 ft | 24 kts | 9° |
| 2026-05-07 09:28 | 59.65166 | 17.92213 | 141 ft | 25 kts | 13° |
| 2026-05-07 09:28 | 59.65327 | 17.92267 | 141 ft | 22 kts | 9° |
| 2026-05-07 09:28 | 59.65477 | 17.92321 | 141 ft | 23 kts | 11° |
| 2026-05-07 09:29 | 59.65640 | 17.92380 | 141 ft | 24 kts | 10° |
| 2026-05-07 09:29 | 59.65802 | 17.92438 | 141 ft | 23 kts | 11° |
| 2026-05-07 09:29 | 59.65973 | 17.92502 | 141 ft | 28 kts | 9° |
| 2026-05-07 09:29 | 59.66175 | 17.92571 | 141 ft | 30 kts | 10° |
| 2026-05-07 09:30 | 59.66390 | 17.92651 | 141 ft | 32 kts | 11° |
| 2026-05-07 09:30 | 59.66532 | 17.92616 | 141 ft | 0 kts | 339° |
| 2026-05-07 09:30 | 59.66599 | 17.92548 | 142 ft | 23 kts | 309° |
| 2026-05-07 09:30 | 59.66561 | 17.92352 | 145 ft | 0 kts | 192° |
| 2026-05-07 09:33 | 59.66177 | 17.92210 | 149 ft | 112 kts | 190° |
| 2026-05-07 09:34 | 59.65099 | 17.91803 | 374 ft | 189 kts | 191° |
| 2026-05-07 09:34 | 59.63701 | 17.91331 | 1189 ft | 218 kts | 190° |
| 2026-05-07 09:34 | 59.62214 | 17.90721 | 2619 ft | 222 kts | 198° |
| 2026-05-07 09:34 | 59.60926 | 17.88871 | 3617 ft | 243 kts | 232° |
| 2026-05-07 09:35 | 59.59993 | 17.85909 | 4460 ft | 268 kts | 241° |
| 2026-05-07 09:35 | 59.59057 | 17.82462 | 4925 ft | 304 kts | 242° |
| 2026-05-07 09:35 | 59.57975 | 17.78557 | 5122 ft | 346 kts | 240° |
| 2026-05-07 09:35 | 59.56418 | 17.74670 | 5818 ft | 367 kts | 223° |
| 2026-05-07 09:36 | 59.54400 | 17.71738 | 7602 ft | 357 kts | 212° |
| 2026-05-07 09:36 | 59.52241 | 17.69438 | 9403 ft | 347 kts | 209° |
| 2026-05-07 09:36 | 59.50114 | 17.67354 | 11160 ft | 336 kts | 209° |
| 2026-05-07 09:36 | 59.48059 | 17.65364 | 13006 ft | 323 kts | 210° |
| 2026-05-07 09:37 | 59.46068 | 17.63430 | 14638 ft | 317 kts | 211° |
| 2026-05-07 09:37 | 59.44095 | 17.61491 | 15827 ft | 318 kts | 212° |
| 2026-05-07 09:37 | 59.42140 | 17.59380 | 16910 ft | 323 kts | 213° |
| 2026-05-07 09:37 | 59.40161 | 17.57216 | 17986 ft | 328 kts | 213° |
| 2026-05-07 09:38 | 59.38157 | 17.55006 | 18984 ft | 333 kts | 213° |
| 2026-05-07 09:38 | 59.36124 | 17.52754 | 19947 ft | 336 kts | 214° |
| 2026-05-07 09:38 | 59.34085 | 17.50488 | 20904 ft | 339 kts | 214° |
| 2026-05-07 09:38 | 59.32020 | 17.48192 | 21847 ft | 342 kts | 214° |
| 2026-05-07 09:39 | 59.29939 | 17.45878 | 22758 ft | 346 kts | 214° |
| 2026-05-07 09:39 | 59.27840 | 17.43548 | 23629 ft | 349 kts | 214° |
| 2026-05-07 09:39 | 59.25716 | 17.41193 | 24333 ft | 353 kts | 214° |
| 2026-05-07 09:39 | 59.23568 | 17.38816 | 24999 ft | 356 kts | 214° |
| 2026-05-07 09:40 | 59.21401 | 17.36422 | 25657 ft | 360 kts | 214° |
| 2026-05-07 09:40 | 59.19215 | 17.34013 | 26310 ft | 362 kts | 214° |
| 2026-05-07 09:40 | 59.17038 | 17.31617 | 26923 ft | 366 kts | 214° |
| 2026-05-07 09:40 | 59.14785 | 17.29141 | 27538 ft | 369 kts | 214° |
| 2026-05-07 09:41 | 59.12537 | 17.26674 | 28135 ft | 372 kts | 214° |
| 2026-05-07 09:41 | 59.10268 | 17.24189 | 28715 ft | 376 kts | 214° |
| 2026-05-07 09:41 | 59.07982 | 17.21697 | 29262 ft | 379 kts | 214° |
| 2026-05-07 09:41 | 59.05655 | 17.19227 | 29807 ft | 383 kts | 213° |
| 2026-05-07 09:42 | 59.03328 | 17.16802 | 30321 ft | 385 kts | 213° |
| 2026-05-07 09:42 | 59.00933 | 17.14331 | 30910 ft | 384 kts | 213° |
| 2026-05-07 09:42 | 58.98575 | 17.11904 | 31490 ft | 383 kts | 213° |
| 2026-05-07 09:42 | 58.96256 | 17.09516 | 32032 ft | 383 kts | 213° |
| 2026-05-07 09:43 | 58.93905 | 17.07091 | 32555 ft | 383 kts | 213° |
| 2026-05-07 09:43 | 58.91556 | 17.04666 | 33074 ft | 383 kts | 213° |
| 2026-05-07 09:43 | 58.89206 | 17.02239 | 33587 ft | 382 kts | 213° |
| 2026-05-07 09:43 | 58.86861 | 16.99819 | 34109 ft | 382 kts | 213° |
| 2026-05-07 09:44 | 58.84517 | 16.97404 | 34495 ft | 382 kts | 213° |
| 2026-05-07 09:44 | 58.82166 | 16.94984 | 34841 ft | 384 kts | 213° |
| 2026-05-07 09:44 | 58.79801 | 16.92553 | 35184 ft | 385 kts | 212° |
| 2026-05-07 09:44 | 58.77434 | 16.90124 | 35540 ft | 386 kts | 212° |
| 2026-05-07 09:45 | 58.75062 | 16.87696 | 35888 ft | 387 kts | 212° |
| 2026-05-07 09:45 | 58.72679 | 16.85260 | 36228 ft | 388 kts | 212° |
| 2026-05-07 09:45 | 58.70289 | 16.82821 | 36562 ft | 389 kts | 212° |
| 2026-05-07 09:45 | 58.67894 | 16.80381 | 36898 ft | 390 kts | 212° |
| 2026-05-07 09:46 | 58.65491 | 16.77937 | 37218 ft | 391 kts | 212° |
| 2026-05-07 09:46 | 58.63082 | 16.75491 | 37564 ft | 392 kts | 212° |
| 2026-05-07 09:46 | 58.60671 | 16.73046 | 37893 ft | 392 kts | 212° |
| 2026-05-07 09:46 | 58.58248 | 16.70592 | 38058 ft | 396 kts | 212° |
| 2026-05-07 09:47 | 58.55812 | 16.68129 | 38051 ft | 397 kts | 211° |
| 2026-05-07 09:47 | 58.50925 | 16.63202 | 38054 ft | 397 kts | 211° |
| 2026-05-07 09:48 | 58.46028 | 16.58281 | 38053 ft | 397 kts | 211° |
| 2026-05-07 09:48 | 58.41190 | 16.53439 | 38053 ft | 389 kts | 211° |
| 2026-05-07 09:49 | 58.36410 | 16.48664 | 38061 ft | 388 kts | 211° |
| 2026-05-07 09:49 | 58.31636 | 16.43905 | 38044 ft | 387 kts | 211° |
| 2026-05-07 09:50 | 58.26853 | 16.39155 | 38048 ft | 387 kts | 211° |
| 2026-05-07 09:50 | 58.22075 | 16.34425 | 38053 ft | 388 kts | 211° |
| 2026-05-07 09:51 | 58.17291 | 16.29703 | 38049 ft | 388 kts | 211° |
| 2026-05-07 09:51 | 58.12505 | 16.24995 | 38055 ft | 388 kts | 211° |
| 2026-05-07 09:52 | 58.07713 | 16.20295 | 38045 ft | 388 kts | 211° |
| 2026-05-07 09:52 | 58.02922 | 16.15610 | 38049 ft | 388 kts | 211° |
| 2026-05-07 09:53 | 57.98128 | 16.10936 | 38044 ft | 388 kts | 211° |
| 2026-05-07 09:53 | 57.93329 | 16.06271 | 38047 ft | 388 kts | 211° |
| 2026-05-07 09:54 | 57.88530 | 16.01621 | 38044 ft | 388 kts | 211° |
| 2026-05-07 09:54 | 57.83727 | 15.96981 | 38047 ft | 388 kts | 211° |
| 2026-05-07 09:55 | 57.78958 | 15.92387 | 38046 ft | 388 kts | 211° |
| 2026-05-07 09:55 | 57.74153 | 15.87772 | 38040 ft | 388 kts | 210° |
| 2026-05-07 09:56 | 57.69346 | 15.83170 | 38041 ft | 388 kts | 210° |
| 2026-05-07 09:56 | 57.64539 | 15.78583 | 38042 ft | 388 kts | 210° |
| 2026-05-07 09:57 | 57.59726 | 15.74003 | 38041 ft | 388 kts | 210° |
| 2026-05-07 09:57 | 57.54911 | 15.69434 | 38036 ft | 388 kts | 210° |
| 2026-05-07 09:58 | 57.50095 | 15.64877 | 38041 ft | 388 kts | 210° |
| 2026-05-07 09:58 | 57.45278 | 15.60333 | 38043 ft | 388 kts | 210° |
| 2026-05-07 09:59 | 57.40459 | 15.55802 | 38038 ft | 388 kts | 210° |
| 2026-05-07 09:59 | 57.35636 | 15.51280 | 38039 ft | 388 kts | 210° |
| 2026-05-07 10:00 | 57.30812 | 15.46770 | 38037 ft | 388 kts | 210° |
| 2026-05-07 10:00 | 57.25986 | 15.42272 | 38035 ft | 388 kts | 210° |
| 2026-05-07 10:01 | 57.21159 | 15.37786 | 38040 ft | 388 kts | 210° |
| 2026-05-07 10:01 | 57.16331 | 15.33313 | 38040 ft | 388 kts | 210° |
| 2026-05-07 10:02 | 57.12320 | 15.29607 | 38037 ft | 388 kts | 210° |
| 2026-05-07 10:02 | 57.07495 | 15.25159 | 38047 ft | 388 kts | 210° |
| 2026-05-07 10:03 | 57.02663 | 15.20720 | 38045 ft | 388 kts | 210° |
| 2026-05-07 10:03 | 56.97829 | 15.16289 | 38045 ft | 388 kts | 209° |
| 2026-05-07 10:04 | 56.92994 | 15.11872 | 38042 ft | 388 kts | 209° |
| 2026-05-07 10:04 | 56.88156 | 15.07465 | 38046 ft | 388 kts | 209° |
| 2026-05-07 10:05 | 56.83317 | 15.03070 | 38051 ft | 388 kts | 209° |
| 2026-05-07 10:05 | 56.78471 | 14.98682 | 38046 ft | 389 kts | 209° |
| 2026-05-07 10:06 | 56.73626 | 14.94306 | 38045 ft | 389 kts | 209° |
| 2026-05-07 10:06 | 56.68773 | 14.89936 | 38045 ft | 389 kts | 209° |
| 2026-05-07 10:07 | 56.63921 | 14.85580 | 38043 ft | 389 kts | 209° |
| 2026-05-07 10:07 | 56.59098 | 14.81262 | 38048 ft | 389 kts | 209° |
| 2026-05-07 10:08 | 56.54242 | 14.76927 | 38049 ft | 389 kts | 209° |
| 2026-05-07 10:08 | 56.49383 | 14.72602 | 38050 ft | 389 kts | 209° |
| 2026-05-07 10:09 | 56.44521 | 14.68287 | 38051 ft | 389 kts | 208° |
| 2026-05-07 10:09 | 56.39655 | 14.63981 | 38049 ft | 389 kts | 208° |
| 2026-05-07 10:10 | 56.34785 | 14.59683 | 38054 ft | 389 kts | 208° |
| 2026-05-07 10:10 | 56.29921 | 14.55402 | 38060 ft | 389 kts | 208° |
| 2026-05-07 10:11 | 56.25046 | 14.51125 | 38058 ft | 389 kts | 208° |
| 2026-05-07 10:11 | 56.20174 | 14.46862 | 38054 ft | 389 kts | 208° |
| 2026-05-07 10:12 | 56.15301 | 14.42611 | 38061 ft | 390 kts | 208° |
| 2026-05-07 10:12 | 56.10423 | 14.38367 | 38065 ft | 390 kts | 208° |
| 2026-05-07 10:13 | 56.05543 | 14.34133 | 38067 ft | 390 kts | 208° |
| 2026-05-07 10:13 | 56.00663 | 14.29911 | 38071 ft | 390 kts | 208° |
| 2026-05-07 10:14 | 55.95781 | 14.25699 | 38078 ft | 390 kts | 208° |
| 2026-05-07 10:14 | 55.90895 | 14.21497 | 38076 ft | 390 kts | 208° |
| 2026-05-07 10:15 | 55.86007 | 14.17304 | 38074 ft | 390 kts | 208° |
| 2026-05-07 10:15 | 55.81151 | 14.13150 | 38074 ft | 390 kts | 207° |
| 2026-05-07 10:16 | 55.76262 | 14.08979 | 38072 ft | 390 kts | 207° |
| 2026-05-07 10:16 | 55.71368 | 14.04815 | 38068 ft | 390 kts | 207° |
| 2026-05-07 10:17 | 55.66471 | 14.00661 | 38071 ft | 390 kts | 207° |
| 2026-05-07 10:17 | 55.61571 | 13.96517 | 38072 ft | 390 kts | 207° |
| 2026-05-07 10:18 | 55.56664 | 13.92378 | 38069 ft | 390 kts | 207° |
| 2026-05-07 10:18 | 55.51757 | 13.88250 | 38070 ft | 390 kts | 207° |
| 2026-05-07 10:19 | 55.46849 | 13.84133 | 38074 ft | 391 kts | 207° |
| 2026-05-07 10:19 | 55.41946 | 13.80030 | 38074 ft | 391 kts | 207° |
| 2026-05-07 10:20 | 55.37027 | 13.75927 | 38076 ft | 391 kts | 207° |
| 2026-05-07 10:20 | 55.32148 | 13.71868 | 38076 ft | 391 kts | 207° |
| 2026-05-07 10:21 | 55.27228 | 13.67786 | 38076 ft | 391 kts | 207° |
| 2026-05-07 10:21 | 55.22309 | 13.63715 | 38080 ft | 391 kts | 206° |
| 2026-05-07 10:22 | 55.17389 | 13.59656 | 38079 ft | 391 kts | 206° |
| 2026-05-07 10:22 | 55.12460 | 13.55600 | 38075 ft | 391 kts | 206° |
| 2026-05-07 10:23 | 55.07533 | 13.51557 | 38078 ft | 391 kts | 206° |
| 2026-05-07 10:23 | 55.02603 | 13.47522 | 38088 ft | 391 kts | 206° |
| 2026-05-07 10:24 | 54.97675 | 13.43500 | 38086 ft | 391 kts | 206° |
| 2026-05-07 10:24 | 54.92907 | 13.38979 | 38088 ft | 390 kts | 217° |
| 2026-05-07 10:25 | 54.89116 | 13.32300 | 38091 ft | 390 kts | 232° |
| 2026-05-07 10:25 | 54.85925 | 13.24684 | 38087 ft | 391 kts | 234° |
| 2026-05-07 10:26 | 54.82842 | 13.16914 | 38086 ft | 391 kts | 235° |
| 2026-05-07 10:26 | 54.79743 | 13.09161 | 38088 ft | 391 kts | 234° |
| 2026-05-07 10:27 | 54.76614 | 13.01446 | 38083 ft | 391 kts | 234° |
| 2026-05-07 10:27 | 54.73473 | 12.93763 | 38085 ft | 391 kts | 234° |
| 2026-05-07 10:28 | 54.70320 | 12.86082 | 38086 ft | 392 kts | 234° |
| 2026-05-07 10:28 | 54.67183 | 12.78460 | 38086 ft | 392 kts | 234° |
| 2026-05-07 10:29 | 54.64020 | 12.70793 | 38082 ft | 392 kts | 234° |
| 2026-05-07 10:29 | 54.60852 | 12.63140 | 38081 ft | 392 kts | 234° |
| 2026-05-07 10:30 | 54.55748 | 12.52175 | 38083 ft | 391 kts | 221° |
| 2026-05-07 10:30 | 54.51510 | 12.46291 | 38074 ft | 392 kts | 218° |
| 2026-05-07 10:31 | 54.47131 | 12.40695 | 38083 ft | 392 kts | 217° |
| 2026-05-07 10:31 | 54.42726 | 12.35147 | 38081 ft | 392 kts | 217° |
| 2026-05-07 10:32 | 54.38334 | 12.29591 | 38080 ft | 392 kts | 217° |
| 2026-05-07 10:32 | 54.33944 | 12.24023 | 38073 ft | 393 kts | 217° |
| 2026-05-07 10:33 | 54.29552 | 12.18457 | 38075 ft | 393 kts | 217° |
| 2026-05-07 10:33 | 54.25157 | 12.12905 | 38070 ft | 393 kts | 217° |
| 2026-05-07 10:34 | 54.20566 | 12.07881 | 38069 ft | 393 kts | 205° |
| 2026-05-07 10:34 | 54.15417 | 12.04672 | 38060 ft | 394 kts | 199° |
| 2026-05-07 10:35 | 54.10163 | 12.01943 | 38059 ft | 395 kts | 198° |
| 2026-05-07 10:35 | 54.04897 | 11.99304 | 38053 ft | 395 kts | 198° |
| 2026-05-07 10:36 | 53.99624 | 11.96634 | 38050 ft | 395 kts | 198° |
| 2026-05-07 10:36 | 53.94366 | 11.93947 | 38047 ft | 395 kts | 198° |
| 2026-05-07 10:37 | 53.89110 | 11.91258 | 38043 ft | 395 kts | 198° |
| 2026-05-07 10:37 | 53.83848 | 11.88572 | 38050 ft | 395 kts | 198° |
| 2026-05-07 10:38 | 53.78586 | 11.85896 | 38050 ft | 395 kts | 198° |
| 2026-05-07 10:38 | 53.73322 | 11.83226 | 38050 ft | 395 kts | 198° |
| 2026-05-07 10:39 | 53.68057 | 11.80563 | 38039 ft | 395 kts | 198° |
| 2026-05-07 10:39 | 53.62835 | 11.77928 | 38037 ft | 395 kts | 198° |
| 2026-05-07 10:40 | 53.57573 | 11.75280 | 38040 ft | 395 kts | 198° |
| 2026-05-07 10:40 | 53.52303 | 11.72635 | 38044 ft | 395 kts | 198° |
| 2026-05-07 10:41 | 53.47040 | 11.70000 | 38033 ft | 395 kts | 198° |
| 2026-05-07 10:41 | 53.41781 | 11.67374 | 38044 ft | 394 kts | 198° |
| 2026-05-07 10:42 | 53.36524 | 11.64756 | 38033 ft | 394 kts | 198° |
| 2026-05-07 10:42 | 53.31263 | 11.62143 | 38033 ft | 394 kts | 198° |
| 2026-05-07 10:43 | 53.25993 | 11.59603 | 38038 ft | 395 kts | 194° |
| 2026-05-07 10:43 | 53.20565 | 11.58124 | 38027 ft | 395 kts | 189° |
| 2026-05-07 10:44 | 53.15109 | 11.56961 | 38025 ft | 395 kts | 188° |
| 2026-05-07 10:44 | 53.09643 | 11.55866 | 38036 ft | 395 kts | 188° |
| 2026-05-07 10:45 | 53.04226 | 11.54383 | 38027 ft | 393 kts | 198° |
| 2026-05-07 10:45 | 52.99231 | 11.50779 | 38032 ft | 392 kts | 208° |
| 2026-05-07 10:46 | 52.94447 | 11.46440 | 38026 ft | 392 kts | 210° |
| 2026-05-07 10:46 | 52.89705 | 11.41982 | 38025 ft | 392 kts | 210° |
| 2026-05-07 10:47 | 52.84957 | 11.37558 | 38034 ft | 392 kts | 210° |
| 2026-05-07 10:47 | 52.80190 | 11.33170 | 38032 ft | 392 kts | 210° |
| 2026-05-07 10:48 | 52.75424 | 11.28810 | 38022 ft | 391 kts | 210° |
| 2026-05-07 10:48 | 52.70658 | 11.24463 | 38012 ft | 391 kts | 210° |
| 2026-05-07 10:49 | 52.65925 | 11.20155 | 38028 ft | 391 kts | 210° |
| 2026-05-07 10:49 | 52.61166 | 11.15834 | 38028 ft | 391 kts | 209° |
| 2026-05-07 10:50 | 52.56384 | 11.11434 | 38019 ft | 401 kts | 213° |
| 2026-05-07 10:50 | 52.51993 | 11.05493 | 38006 ft | 416 kts | 223° |
| 2026-05-07 10:51 | 52.48572 | 10.99952 | 38029 ft | 416 kts | 225° |
| 2026-05-07 10:51 | 52.44533 | 10.93168 | 38031 ft | 415 kts | 225° |
| 2026-05-07 10:52 | 52.40510 | 10.86430 | 38038 ft | 407 kts | 225° |
| 2026-05-07 10:52 | 52.38531 | 10.83141 | 37740 ft | 404 kts | 225° |
| 2026-05-07 10:52 | 52.36577 | 10.79798 | 36814 ft | 411 kts | 229° |
| 2026-05-07 10:53 | 52.34717 | 10.76199 | 35978 ft | 416 kts | 229° |
| 2026-05-07 10:53 | 52.32871 | 10.72552 | 35252 ft | 416 kts | 230° |
| 2026-05-07 10:53 | 52.31048 | 10.68884 | 34567 ft | 416 kts | 230° |
| 2026-05-07 10:53 | 52.29233 | 10.65202 | 33832 ft | 416 kts | 230° |
| 2026-05-07 10:54 | 52.27417 | 10.61515 | 33025 ft | 417 kts | 230° |
| 2026-05-07 10:54 | 52.25594 | 10.57821 | 32284 ft | 417 kts | 230° |
| 2026-05-07 10:54 | 52.23780 | 10.54156 | 31695 ft | 414 kts | 229° |
| 2026-05-07 10:54 | 52.21977 | 10.50523 | 31184 ft | 409 kts | 229° |
| 2026-05-07 10:55 | 52.20191 | 10.46935 | 30648 ft | 406 kts | 229° |
| 2026-05-07 10:55 | 52.18413 | 10.43371 | 30080 ft | 404 kts | 228° |
| 2026-05-07 10:55 | 52.16645 | 10.39836 | 29467 ft | 401 kts | 229° |
| 2026-05-07 10:55 | 52.14895 | 10.36344 | 28922 ft | 396 kts | 229° |
| 2026-05-07 10:56 | 52.13160 | 10.32885 | 28386 ft | 392 kts | 229° |
| 2026-05-07 10:56 | 52.11446 | 10.29471 | 27834 ft | 387 kts | 229° |
| 2026-05-07 10:56 | 52.09751 | 10.26102 | 27284 ft | 383 kts | 229° |
| 2026-05-07 10:56 | 52.08071 | 10.22764 | 26733 ft | 379 kts | 229° |
| 2026-05-07 10:57 | 52.06410 | 10.19469 | 26196 ft | 375 kts | 229° |
| 2026-05-07 10:57 | 52.04763 | 10.16206 | 25660 ft | 372 kts | 229° |
| 2026-05-07 10:57 | 52.03130 | 10.12974 | 25135 ft | 368 kts | 229° |
| 2026-05-07 10:57 | 52.01515 | 10.09782 | 24612 ft | 365 kts | 229° |
| 2026-05-07 10:58 | 51.99908 | 10.06610 | 24096 ft | 361 kts | 229° |
| 2026-05-07 10:58 | 51.98339 | 10.03517 | 23561 ft | 359 kts | 229° |
| 2026-05-07 10:58 | 51.96738 | 10.00364 | 22971 ft | 356 kts | 229° |
| 2026-05-07 10:58 | 51.95172 | 9.97285 | 22416 ft | 352 kts | 229° |
| 2026-05-07 10:59 | 51.93625 | 9.94247 | 21912 ft | 347 kts | 229° |
| 2026-05-07 10:59 | 51.92099 | 9.91252 | 21402 ft | 344 kts | 229° |
| 2026-05-07 10:59 | 51.90581 | 9.88277 | 20889 ft | 340 kts | 229° |
| 2026-05-07 10:59 | 51.89102 | 9.85382 | 20404 ft | 337 kts | 229° |
| 2026-05-07 11:00 | 51.87616 | 9.82474 | 19900 ft | 334 kts | 229° |
| 2026-05-07 11:00 | 51.86093 | 9.79655 | 19372 ft | 331 kts | 227° |
| 2026-05-07 11:00 | 51.84518 | 9.76956 | 18841 ft | 329 kts | 225° |
| 2026-05-07 11:00 | 51.82922 | 9.74333 | 18343 ft | 326 kts | 224° |
| 2026-05-07 11:01 | 51.81323 | 9.71751 | 17793 ft | 323 kts | 224° |
| 2026-05-07 11:01 | 51.79743 | 9.69208 | 17305 ft | 318 kts | 224° |
| 2026-05-07 11:01 | 51.78192 | 9.66702 | 16830 ft | 314 kts | 224° |
| 2026-05-07 11:01 | 51.76656 | 9.64209 | 16347 ft | 311 kts | 225° |
| 2026-05-07 11:02 | 51.75143 | 9.61744 | 15877 ft | 308 kts | 225° |
| 2026-05-07 11:02 | 51.73641 | 9.59293 | 15409 ft | 306 kts | 225° |
| 2026-05-07 11:02 | 51.72153 | 9.56863 | 14949 ft | 303 kts | 225° |
| 2026-05-07 11:02 | 51.70680 | 9.54456 | 14490 ft | 300 kts | 225° |
| 2026-05-07 11:03 | 51.69243 | 9.52031 | 13989 ft | 300 kts | 230° |
| 2026-05-07 11:03 | 51.67959 | 9.49403 | 13535 ft | 297 kts | 232° |
| 2026-05-07 11:03 | 51.66733 | 9.46758 | 13103 ft | 292 kts | 233° |
| 2026-05-07 11:03 | 51.65540 | 9.44142 | 12647 ft | 288 kts | 233° |
| 2026-05-07 11:04 | 51.64363 | 9.41543 | 12198 ft | 286 kts | 233° |
| 2026-05-07 11:04 | 51.63201 | 9.38971 | 11769 ft | 283 kts | 233° |
| 2026-05-07 11:04 | 51.62046 | 9.36414 | 11333 ft | 282 kts | 233° |
| 2026-05-07 11:04 | 51.60898 | 9.33872 | 10911 ft | 280 kts | 233° |
| 2026-05-07 11:05 | 51.59757 | 9.31347 | 10494 ft | 278 kts | 233° |
| 2026-05-07 11:05 | 51.58622 | 9.28837 | 10079 ft | 276 kts | 233° |
| 2026-05-07 11:05 | 51.57520 | 9.26402 | 9918 ft | 262 kts | 233° |
| 2026-05-07 11:05 | 51.56473 | 9.24088 | 9742 ft | 251 kts | 233° |
| 2026-05-07 11:06 | 51.55450 | 9.21833 | 9387 ft | 249 kts | 233° |
| 2026-05-07 11:06 | 51.54433 | 9.19592 | 9039 ft | 248 kts | 233° |
| 2026-05-07 11:06 | 51.53421 | 9.17364 | 8676 ft | 247 kts | 233° |
| 2026-05-07 11:06 | 51.52524 | 9.14996 | 8190 ft | 250 kts | 244° |
| 2026-05-07 11:07 | 51.52128 | 9.12240 | 7534 ft | 261 kts | 266° |
| 2026-05-07 11:07 | 51.52497 | 9.09351 | 6938 ft | 270 kts | 291° |
| 2026-05-07 11:07 | 51.53612 | 9.06905 | 6403 ft | 275 kts | 312° |
| 2026-05-07 11:07 | 51.55027 | 9.04901 | 5874 ft | 274 kts | 317° |
| 2026-05-07 11:08 | 51.56495 | 9.02976 | 5378 ft | 270 kts | 318° |
| 2026-05-07 11:08 | 51.57942 | 9.01078 | 4883 ft | 267 kts | 319° |
| 2026-05-07 11:08 | 51.59372 | 8.99185 | 4396 ft | 264 kts | 318° |
| 2026-05-07 11:08 | 51.60774 | 8.97314 | 3933 ft | 260 kts | 318° |
| 2026-05-07 11:09 | 51.62154 | 8.95453 | 3462 ft | 258 kts | 318° |
| 2026-05-07 11:09 | 51.63520 | 8.93608 | 3082 ft | 255 kts | 319° |
| 2026-05-07 11:09 | 51.64877 | 8.91772 | 2982 ft | 251 kts | 319° |
| 2026-05-07 11:09 | 51.66159 | 8.90039 | 2987 ft | 231 kts | 319° |
| 2026-05-07 11:10 | 51.67332 | 8.88455 | 3029 ft | 205 kts | 319° |
| 2026-05-07 11:10 | 51.68234 | 8.87018 | 3040 ft | 165 kts | 307° |
| 2026-05-07 11:10 | 51.68733 | 8.85542 | 2999 ft | 135 kts | 288° |
| 2026-05-07 11:10 | 51.68966 | 8.84133 | 3010 ft | 128 kts | 282° |
| 2026-05-07 11:11 | 51.69157 | 8.82737 | 3000 ft | 128 kts | 282° |
| 2026-05-07 11:11 | 51.69163 | 8.81315 | 2999 ft | 128 kts | 258° |
| 2026-05-07 11:11 | 51.68850 | 8.79978 | 3003 ft | 128 kts | 243° |
| 2026-05-07 11:11 | 51.68389 | 8.78754 | 3001 ft | 128 kts | 237° |
| 2026-05-07 11:12 | 51.67894 | 8.77564 | 3001 ft | 128 kts | 238° |
| 2026-05-07 11:12 | 51.67412 | 8.76386 | 2942 ft | 128 kts | 238° |
| 2026-05-07 11:12 | 51.66924 | 8.75190 | 2776 ft | 127 kts | 238° |
| 2026-05-07 11:12 | 51.66440 | 8.74000 | 2598 ft | 127 kts | 238° |
| 2026-05-07 11:13 | 51.65956 | 8.72808 | 2411 ft | 127 kts | 238° |
| 2026-05-07 11:13 | 51.65470 | 8.71611 | 2239 ft | 128 kts | 239° |
| 2026-05-07 11:13 | 51.64981 | 8.70407 | 2057 ft | 128 kts | 239° |
| 2026-05-07 11:13 | 51.64490 | 8.69201 | 1846 ft | 129 kts | 239° |
| 2026-05-07 11:14 | 51.63999 | 8.67993 | 1562 ft | 128 kts | 239° |
| 2026-05-07 11:14 | 51.63513 | 8.66798 | 1318 ft | 127 kts | 239° |
| 2026-05-07 11:14 | 51.63031 | 8.65613 | 1121 ft | 126 kts | 241° |
| 2026-05-07 11:14 | 51.62553 | 8.64440 | 942 ft | 125 kts | 240° |
| 2026-05-07 11:15 | 51.62081 | 8.63279 | 771 ft | 123 kts | 240° |
| 2026-05-07 11:15 | 51.61633 | 8.62282 | 696 ft | 73 kts | 233° |
| 2026-05-07 11:15 | 51.61462 | 8.61779 | 713 ft | 44 kts | 237° |
| 2026-05-07 11:15 | 51.61302 | 8.61380 | 716 ft | 41 kts | 237° |
| 2026-05-07 11:16 | 51.61142 | 8.61074 | 719 ft | 31 kts | 207° |
| 2026-05-07 11:16 | 51.61021 | 8.61018 | 724 ft | 4 kts | 144° |
| 2026-05-07 11:16 | 51.60995 | 8.61067 | 721 ft | 9 kts | 115° |
| 2026-05-07 11:16 | 51.60981 | 8.61158 | 724 ft | 8 kts | 102° |
| 2026-05-07 11:17 | 51.60964 | 8.61294 | 731 ft | 14 kts | 102° |
| 2026-05-07 11:17 | 51.60975 | 8.61414 | 733 ft | 13 kts | 59° |
| 2026-05-07 11:17 | 51.61053 | 8.61606 | 733 ft | 24 kts | 56° |
| 2026-05-07 11:17 | 51.61122 | 8.61771 | 734 ft | 15 kts | 55° |
| 2026-05-07 11:18 | 51.61162 | 8.61883 | 732 ft | 2 kts | 94° |
| 2026-05-07 11:18 | 51.61127 | 8.61919 | 734 ft | 5 kts | 147° |
| 2026-05-07 11:18 | 51.61118 | 8.61928 | 734 ft | 0 kts | 147° |
| 2026-05-07 11:18 | 51.61119 | 8.61927 | 734 ft | 0 kts | 147° |